Cabo San Lucas, BCS, Mexico
Current Conditions -  °F | °C
As of 4:42 PM on Sunday 21 Dec 2014 (Local Time) from MMSL Reporting Station
Few Clouds Few Clouds  
Wind Chill: 73°   Ceiling: Unl
Heat Index: 73°   Visibility: 10mi
Dew Point: 61°   Wind: 8mph
Humidity: 65%   Direction: 170°S
Pressure: 30"   Gusts: NA
Location:  22.88°N, 109.9°W
Report Text: MMSL 212342Z 17007KT 10SM FEW220 23/16 A3000 RMK 8/001 SC MSGTX MMSD
Loading
Personal Weather Stations






























Interactive Weather Map New forecast layout! Learn more

10-Day Weather Forecast

Advertisements
Track Severe Weather on mobile